createdAt,value
2018-10-19T00:00:18.250Z,77.80
2018-10-19T00:02:46.649Z,77.20
2018-10-19T00:05:15.128Z,86.17
2018-10-19T00:07:43.431Z,86.07
2018-10-19T00:10:12.130Z,89.47
2018-10-19T00:12:40.599Z,87.47
2018-10-19T00:15:09.462Z,118.57
2018-10-19T00:17:38.654Z,113.60
2018-10-19T00:20:08.643Z,120.63
2018-10-19T00:22:37.946Z,129.30
2018-10-19T00:25:08.248Z,131.97
2018-10-19T00:27:37.481Z,127.33
2018-10-19T00:30:07.997Z,129.27
2018-10-19T00:32:36.820Z,118.20
2018-10-19T00:35:06.243Z,119.37
2018-10-19T00:37:35.441Z,119.40
2018-10-19T00:40:04.811Z,121.27
2018-10-19T00:42:33.196Z,119.23
2018-10-19T00:45:01.718Z,109.20
2018-10-19T00:47:30.519Z,113.53
2018-10-19T00:49:59.050Z,106.43
2018-10-19T00:52:27.428Z,105.57
2018-10-19T00:54:55.816Z,103.40
2018-10-19T00:57:24.404Z,102.10
2018-10-19T00:59:53.004Z,100.90
2018-10-19T01:02:21.567Z,97.97
2018-10-19T01:04:50.026Z,100.50
2018-10-19T01:07:19.144Z,94.17
2018-10-19T01:09:47.548Z,96.70
2018-10-19T01:12:16.497Z,93.87
2018-10-19T01:14:44.872Z,96.13
2018-10-19T01:17:13.299Z,92.10
2018-10-19T01:19:41.679Z,88.47
2018-10-19T01:22:10.082Z,93.50
2018-10-19T01:24:38.544Z,89.17
2018-10-19T01:27:07.000Z,87.80
2018-10-19T01:29:35.339Z,92.17
2018-10-19T01:32:03.736Z,85.20
2018-10-19T01:34:32.345Z,85.57
2018-10-19T01:37:04.004Z,84.57
2018-10-19T01:39:32.419Z,82.27
2018-10-19T01:42:00.804Z,83.23
2018-10-19T01:44:31.478Z,78.23
2018-10-19T01:46:59.871Z,78.53
2018-10-19T01:49:28.249Z,79.87
2018-10-19T01:51:56.628Z,82.63
2018-10-19T01:54:25.018Z,81.03
2018-10-19T01:56:53.468Z,78.80
2018-10-19T01:59:21.806Z,76.27
2018-10-19T02:01:50.207Z,73.80
2018-10-19T02:04:18.604Z,73.50
2018-10-19T02:06:46.987Z,76.57
2018-10-19T02:09:15.376Z,74.67
2018-10-19T02:11:43.767Z,71.47
2018-10-19T02:14:12.191Z,70.87
2018-10-19T02:16:40.567Z,67.93
2018-10-19T02:19:08.947Z,72.10
2018-10-19T02:21:37.324Z,72.00
2018-10-19T02:24:05.807Z,69.50
2018-10-19T02:26:34.272Z,68.73
2018-10-19T02:29:02.726Z,69.67
2018-10-19T02:31:31.135Z,66.10
2018-10-19T02:33:59.864Z,67.70
2018-10-19T02:36:28.262Z,63.03
2018-10-19T02:38:57.297Z,63.27
2018-10-19T02:41:25.683Z,67.60
2018-10-19T02:43:54.063Z,65.27
2018-10-19T02:46:22.452Z,64.37
2018-10-19T02:48:50.811Z,66.80
2018-10-19T02:51:19.238Z,62.60
2018-10-19T02:53:47.671Z,61.70
2018-10-19T02:56:16.048Z,58.27
2018-10-19T02:58:44.419Z,60.23
2018-10-19T03:01:12.823Z,60.50
2018-10-19T03:03:41.226Z,60.20
2018-10-19T03:06:09.591Z,57.83
2018-10-19T03:08:38.086Z,59.40
2018-10-19T03:11:07.439Z,60.43
2018-10-19T03:13:35.903Z,56.40
2018-10-19T03:16:04.499Z,58.77
2018-10-19T03:18:32.879Z,56.23
2018-10-19T03:21:01.283Z,53.03
2018-10-19T03:23:29.638Z,52.43
2018-10-19T03:25:58.013Z,49.17
2018-10-19T03:28:26.399Z,51.90
2018-10-19T03:30:54.880Z,49.63
2018-10-19T03:33:23.304Z,49.97
2018-10-19T03:35:51.674Z,50.50
2018-10-19T03:38:20.107Z,52.57
2018-10-19T03:40:48.539Z,50.07
2018-10-19T03:43:16.938Z,51.07
2018-10-19T03:45:45.302Z,48.30
2018-10-19T03:48:13.691Z,49.57
2018-10-19T03:50:42.175Z,45.70
2018-10-19T03:53:10.600Z,47.87
2018-10-19T03:55:38.971Z,46.50
2018-10-19T03:58:07.350Z,47.53
2018-10-19T04:00:35.771Z,45.63
2018-10-19T04:03:04.166Z,45.77
2018-10-19T04:05:32.559Z,45.17
2018-10-19T04:08:01.640Z,43.57
2018-10-19T04:10:30.117Z,44.23
2018-10-19T04:12:58.494Z,43.43
2018-10-19T04:15:26.871Z,43.03
2018-10-19T04:17:55.256Z,43.33
2018-10-19T04:20:23.635Z,43.00
2018-10-19T04:23:06.015Z,40.97
2018-10-19T04:25:34.576Z,41.07
2018-10-19T04:28:03.347Z,42.40
2018-10-19T04:30:31.746Z,39.87
2018-10-19T04:33:00.543Z,40.90
2018-10-19T04:35:29.205Z,39.10
2018-10-19T04:37:57.608Z,37.73
2018-10-19T04:40:26.007Z,41.13
2018-10-19T04:42:54.383Z,35.30
2018-10-19T04:45:23.106Z,35.60
2018-10-19T04:47:51.522Z,41.13
2018-10-19T04:50:19.913Z,50.67
2018-10-19T04:52:48.337Z,52.77
2018-10-19T04:55:19.072Z,45.93
2018-10-19T04:57:47.446Z,39.23
2018-10-19T05:00:17.552Z,39.43
2018-10-19T05:02:46.048Z,37.10
2018-10-19T05:05:14.438Z,43.93
2018-10-19T05:07:42.807Z,43.67
2018-10-19T05:10:11.412Z,42.27
2018-10-19T05:12:39.908Z,45.73
2018-10-19T05:15:09.721Z,44.00
2018-10-19T05:17:38.211Z,43.30
2018-10-19T05:20:08.089Z,38.00
2018-10-19T05:22:36.716Z,38.13
2018-10-19T05:25:07.027Z,35.03
2018-10-19T05:27:35.561Z,33.47
2018-10-19T05:30:04.145Z,36.73
2018-10-19T05:32:32.591Z,41.17
2018-10-19T05:35:01.494Z,39.90
2018-10-19T05:37:31.200Z,34.67
2018-10-19T05:39:59.958Z,33.80
2018-10-19T05:42:29.295Z,32.80
2018-10-19T05:44:57.771Z,33.20
2018-10-19T05:47:26.316Z,29.83
2018-10-19T05:49:55.713Z,32.37
2018-10-19T05:52:24.141Z,28.00
2018-10-19T05:54:52.639Z,31.47
2018-10-19T05:57:21.020Z,28.57
2018-10-19T05:59:49.547Z,26.43
2018-10-19T06:02:17.951Z,25.50
2018-10-19T06:04:46.429Z,25.17
2018-10-19T06:07:14.818Z,25.60
2018-10-19T06:09:43.213Z,26.83
2018-10-19T06:12:11.615Z,24.93
2018-10-19T06:14:40.750Z,27.80
2018-10-19T06:17:09.170Z,25.93
2018-10-19T06:19:37.543Z,26.10
2018-10-19T06:22:05.927Z,23.50
2018-10-19T06:24:34.312Z,20.70
2018-10-19T06:27:02.699Z,24.10
2018-10-19T06:29:31.064Z,23.77
2018-10-19T06:31:59.549Z,23.57
2018-10-19T06:34:27.979Z,21.57
2018-10-19T06:36:56.365Z,24.17
2018-10-19T06:39:24.827Z,23.10
2018-10-19T06:41:55.001Z,18.73
2018-10-19T06:44:23.387Z,20.80
2018-10-19T06:46:51.875Z,23.53
2018-10-19T06:49:20.255Z,21.50
2018-10-19T06:51:48.632Z,23.40
2018-10-19T06:54:17.487Z,18.40
2018-10-19T06:56:46.235Z,22.10
2018-10-19T06:59:14.643Z,21.13
2018-10-19T07:01:43.085Z,19.00
2018-10-19T07:04:11.587Z,22.27
2018-10-19T07:06:43.641Z,22.33
2018-10-19T07:09:12.056Z,34.90
2018-10-19T07:11:40.424Z,30.83
2018-10-19T07:14:08.827Z,29.37
2018-10-19T07:16:37.223Z,32.13
2018-10-19T07:19:06.029Z,31.57
2018-10-19T07:21:34.424Z,28.20
2018-10-19T07:24:02.794Z,31.83
2018-10-19T07:26:31.288Z,51.47
2018-10-19T07:28:59.797Z,76.47
2018-10-19T07:31:28.173Z,76.77
2018-10-19T07:33:56.599Z,77.27
2018-10-19T07:36:25.304Z,50.03
2018-10-19T07:38:53.671Z,40.77
2018-10-19T07:41:22.063Z,51.50
2018-10-19T07:43:50.587Z,52.30
2018-10-19T07:46:19.091Z,50.83
2018-10-19T07:48:47.480Z,38.30
2018-10-19T07:51:16.086Z,40.87
2018-10-19T07:53:44.569Z,60.17
2018-10-19T07:56:13.115Z,44.97
2018-10-19T07:58:41.514Z,48.50
2018-10-19T08:01:09.940Z,46.73
2018-10-19T08:03:38.311Z,50.43
2018-10-19T08:06:06.678Z,48.00
2018-10-19T08:08:35.059Z,52.37
2018-10-19T08:11:03.692Z,43.10
2018-10-19T08:13:32.053Z,46.13
2018-10-19T08:16:00.447Z,41.20
2018-10-19T08:18:28.875Z,39.33
2018-10-19T08:20:57.310Z,32.77
2018-10-19T08:23:25.780Z,35.40
2018-10-19T08:25:54.222Z,30.33
2018-10-19T08:28:22.816Z,34.40
2018-10-19T08:30:51.295Z,28.70
2018-10-19T08:33:19.865Z,29.93
2018-10-19T08:35:48.270Z,28.73
2018-10-19T08:38:16.747Z,28.90
2018-10-19T08:40:45.148Z,32.33
2018-10-19T08:43:13.591Z,48.00
2018-10-19T08:45:41.967Z,40.20
2018-10-19T08:48:10.476Z,43.63
2018-10-19T08:50:38.907Z,36.63
2018-10-19T08:53:07.358Z,34.60
2018-10-19T08:55:35.786Z,31.13
2018-10-19T08:58:04.248Z,31.80
2018-10-19T09:00:32.631Z,27.57
2018-10-19T09:03:01.152Z,31.67
2018-10-19T09:05:29.527Z,29.37
2018-10-19T09:07:58.033Z,27.33
2018-10-19T09:10:26.567Z,24.90
2018-10-19T09:12:55.245Z,30.00
2018-10-19T09:15:23.637Z,26.47
2018-10-19T09:17:52.084Z,30.10
2018-10-19T09:20:20.501Z,30.47
2018-10-19T09:22:48.886Z,33.60
2018-10-19T09:25:17.322Z,31.17
2018-10-19T09:27:45.734Z,29.73
2018-10-19T09:30:14.127Z,27.57
2018-10-19T09:32:42.599Z,25.73
2018-10-19T09:35:11.019Z,32.07
2018-10-19T09:37:42.560Z,26.90
2018-10-19T09:40:14.025Z,26.83
2018-10-19T09:42:42.801Z,26.10
2018-10-19T09:45:11.259Z,32.80
2018-10-19T09:47:39.746Z,39.27
2018-10-19T09:50:08.116Z,33.33
2018-10-19T09:52:36.522Z,36.13
2018-10-19T09:55:05.605Z,34.77
2018-10-19T09:57:33.984Z,38.00
2018-10-19T10:00:02.576Z,44.27
2018-10-19T10:02:30.980Z,41.57
2018-10-19T10:05:01.771Z,36.87
2018-10-19T10:07:30.180Z,34.43
2018-10-19T10:09:58.554Z,35.23
2018-10-19T10:12:27.011Z,30.53
2018-10-19T10:14:55.445Z,31.03
2018-10-19T10:17:23.803Z,29.63
2018-10-19T10:19:52.179Z,30.93
2018-10-19T10:22:20.617Z,32.43
2018-10-19T10:24:49.065Z,37.00
2018-10-19T10:27:17.416Z,41.67
2018-10-19T10:29:45.805Z,43.07
2018-10-19T10:32:14.315Z,47.83
2018-10-19T10:34:42.676Z,39.63
2018-10-19T10:37:11.153Z,38.07
2018-10-19T10:39:39.492Z,33.53
2018-10-19T10:42:07.899Z,31.60
2018-10-19T10:44:36.293Z,43.33
2018-10-19T10:47:04.921Z,60.10
2018-10-19T10:49:33.287Z,55.33
2018-10-19T10:52:01.683Z,54.40
2018-10-19T10:54:30.137Z,50.40
2018-10-19T10:56:58.619Z,60.73
2018-10-19T10:59:27.132Z,98.83
2018-10-19T11:01:55.582Z,75.57
2018-10-19T11:04:23.976Z,71.87
2018-10-19T11:06:52.379Z,66.00
2018-10-19T11:09:20.770Z,59.47
2018-10-19T11:11:49.200Z,63.37
2018-10-19T11:14:17.621Z,53.30
2018-10-19T11:16:46.063Z,48.33
2018-10-19T11:19:14.521Z,48.03
2018-10-19T11:21:42.998Z,43.33
2018-10-19T11:24:11.506Z,45.10
2018-10-19T11:26:40.164Z,45.27
2018-10-19T11:29:08.577Z,40.53
2018-10-19T11:31:36.960Z,41.30
2018-10-19T11:34:05.647Z,38.93
2018-10-19T11:36:34.392Z,38.93
2018-10-19T11:39:02.862Z,39.73
2018-10-19T11:41:31.255Z,35.93
2018-10-19T11:43:59.658Z,28.83
2018-10-19T11:46:28.200Z,34.17
2018-10-19T11:48:56.698Z,30.97
2018-10-19T11:51:25.123Z,30.30
2018-10-19T11:53:53.603Z,26.60
2018-10-19T11:56:22.217Z,25.93
2018-10-19T11:58:50.615Z,26.50
2018-10-19T12:01:19.086Z,23.73
2018-10-19T12:03:47.496Z,26.27
2018-10-19T12:06:15.907Z,22.37
2018-10-19T12:08:44.424Z,24.73
2018-10-19T12:11:12.915Z,24.07
2018-10-19T12:13:41.302Z,19.43
2018-10-19T12:16:09.823Z,21.00
2018-10-19T12:18:38.354Z,45.63
2018-10-19T12:21:06.991Z,49.67
2018-10-19T12:23:35.414Z,42.23
2018-10-19T12:26:03.911Z,37.80
2018-10-19T12:28:32.418Z,37.67
2018-10-19T12:31:00.934Z,32.43
2018-10-19T12:33:29.379Z,34.13
2018-10-19T12:35:57.860Z,29.40
2018-10-19T12:38:26.276Z,30.00
2018-10-19T12:40:54.751Z,29.23
2018-10-19T12:43:23.687Z,24.30
2018-10-19T12:46:37.233Z,26.10
2018-10-19T12:49:06.077Z,24.47
2018-10-19T12:55:06.693Z,24.17
2018-10-19T12:57:35.269Z,22.10
2018-10-19T13:00:03.768Z,21.73
2018-10-19T13:02:32.247Z,25.87
2018-10-19T13:05:00.674Z,35.00
2018-10-19T13:07:29.147Z,49.73
2018-10-19T13:09:57.534Z,53.60
2018-10-19T13:12:25.940Z,49.47
2018-10-19T13:14:54.368Z,49.53
2018-10-19T13:17:22.751Z,45.03
2018-10-19T13:19:51.217Z,41.40
2018-10-19T13:22:19.657Z,42.03
2018-10-19T13:24:48.057Z,36.73
2018-10-19T13:27:16.632Z,35.03
2018-10-19T13:29:45.975Z,31.70
2018-10-19T13:32:14.918Z,27.03
2018-10-19T13:34:43.635Z,25.57
2018-10-19T13:37:12.295Z,22.83
2018-10-19T13:39:40.890Z,21.33
2018-10-19T13:42:09.367Z,22.87
2018-10-19T13:44:37.806Z,22.27
2018-10-19T13:47:06.349Z,17.93
2018-10-19T13:49:36.803Z,19.50
2018-10-19T13:52:05.853Z,25.57
2018-10-19T13:54:34.688Z,14.67
2018-10-19T13:57:06.423Z,14.83
2018-10-19T13:59:35.631Z,17.13
2018-10-19T14:02:04.612Z,14.30
2018-10-19T14:04:34.189Z,15.53
2018-10-19T14:07:03.428Z,15.53
2018-10-19T14:09:32.232Z,12.73
2018-10-19T14:12:03.267Z,14.87
2018-10-19T14:14:32.244Z,12.43
2018-10-19T14:17:01.828Z,11.87
2018-10-19T14:19:32.990Z,12.43
2018-10-19T14:22:04.259Z,12.67
2018-10-19T14:24:35.617Z,11.83
2018-10-19T14:27:06.998Z,12.30
2018-10-19T14:29:38.576Z,10.97
2018-10-19T14:32:10.253Z,14.33
2018-10-19T14:34:41.453Z,14.90
2018-10-19T14:37:12.896Z,13.03
2018-10-19T14:39:44.276Z,10.20
2018-10-19T14:42:16.006Z,11.13
2018-10-19T14:44:47.123Z,9.07
2018-10-19T14:47:18.286Z,12.07
2018-10-19T14:49:49.796Z,9.20
2018-10-19T14:52:21.255Z,11.03
2018-10-19T14:54:51.584Z,9.87
2018-10-19T14:57:22.824Z,12.33
2018-10-19T14:59:55.321Z,9.80
2018-10-19T15:02:24.859Z,10.67
2018-10-19T15:04:53.733Z,12.43
2018-10-19T15:07:22.393Z,18.77
2018-10-19T15:09:52.377Z,14.70
2018-10-19T15:12:21.340Z,13.80
2018-10-19T15:14:49.807Z,16.43
2018-10-19T15:17:19.320Z,12.70
2018-10-19T15:19:47.806Z,19.37
2018-10-19T15:22:16.297Z,11.00
2018-10-19T15:24:44.727Z,11.63
2018-10-19T15:27:13.201Z,9.17
2018-10-19T15:29:41.525Z,10.23
2018-10-19T15:32:09.910Z,9.37
2018-10-19T15:34:38.339Z,11.47
2018-10-19T15:37:06.816Z,9.03
2018-10-19T15:39:35.408Z,9.17
2018-10-19T15:42:03.799Z,10.03
2018-10-19T15:44:32.215Z,9.17
2018-10-19T15:47:02.844Z,9.47
2018-10-19T15:49:31.931Z,13.03
2018-10-19T15:52:00.521Z,11.97
2018-10-19T15:54:29.013Z,9.63
2018-10-19T15:56:57.743Z,9.80
2018-10-19T15:59:25.999Z,9.80
2018-10-19T16:01:54.708Z,11.07
2018-10-19T16:04:23.262Z,11.80
2018-10-19T16:06:51.651Z,9.03
2018-10-19T16:09:20.044Z,9.03
2018-10-19T16:11:48.604Z,7.90
2018-10-19T16:14:17.055Z,9.43
2018-10-19T16:16:45.500Z,27.27
2018-10-19T16:19:13.892Z,30.70
2018-10-19T16:21:42.355Z,44.50
2018-10-19T16:24:10.840Z,35.23
2018-10-19T16:26:39.216Z,33.57
2018-10-19T16:29:07.713Z,29.03
2018-10-19T16:31:36.174Z,30.17
2018-10-19T16:34:04.873Z,23.67
2018-10-19T16:36:33.876Z,23.13
2018-10-19T16:39:02.299Z,26.53
2018-10-19T16:41:30.687Z,24.33
2018-10-19T16:43:59.166Z,26.73
2018-10-19T16:46:27.637Z,21.87
2018-10-19T16:48:56.146Z,18.63
2018-10-19T16:51:24.523Z,37.67
2018-10-19T16:53:52.954Z,34.73
2018-10-19T16:56:21.725Z,36.90
2018-10-19T16:58:50.227Z,28.40
2018-10-19T17:01:18.661Z,46.17
2018-10-19T17:03:47.734Z,39.90
2018-10-19T17:06:16.384Z,38.50
2018-10-19T17:08:45.080Z,35.20
2018-10-19T17:11:13.504Z,30.23
2018-10-19T17:13:41.936Z,33.67
2018-10-19T17:16:10.327Z,27.70
2018-10-19T17:18:39.798Z,34.20
2018-10-19T17:21:08.244Z,28.27
2018-10-19T17:23:36.778Z,25.80
2018-10-19T17:26:06.118Z,28.67
2018-10-19T17:28:34.583Z,28.60
2018-10-19T17:31:03.313Z,26.10
2018-10-19T17:33:31.825Z,30.20
2018-10-19T17:36:00.734Z,25.33
2018-10-19T17:38:29.133Z,24.70
2018-10-19T17:40:57.533Z,27.10
2018-10-19T17:43:26.036Z,23.27
2018-10-19T17:45:54.349Z,61.30
2018-10-19T17:48:22.787Z,44.80
2018-10-19T17:50:51.247Z,42.73
2018-10-19T17:53:19.732Z,38.47
2018-10-19T17:55:50.079Z,42.20
2018-10-19T17:58:19.357Z,40.30
2018-10-19T18:00:47.784Z,43.40
2018-10-19T18:03:16.296Z,39.37
2018-10-19T18:05:45.033Z,38.90
2018-10-19T18:08:13.476Z,36.90
2018-10-19T18:10:42.008Z,39.17
2018-10-19T18:13:13.461Z,38.43
2018-10-19T18:15:44.528Z,33.00
2018-10-19T18:18:16.056Z,30.40
2018-10-19T18:20:47.439Z,28.67
2018-10-19T18:23:19.067Z,38.37
2018-10-19T18:25:50.440Z,34.00
2018-10-19T18:28:21.611Z,29.83
2018-10-19T18:30:53.281Z,32.33
2018-10-19T18:33:25.017Z,40.07
2018-10-19T18:35:56.544Z,39.43
2018-10-19T18:38:28.098Z,34.47
2018-10-19T18:41:00.043Z,35.37
2018-10-19T18:43:31.300Z,34.43
2018-10-19T18:46:02.746Z,35.10
2018-10-19T18:48:34.054Z,35.50
2018-10-19T18:51:04.849Z,30.17
2018-10-19T18:53:36.576Z,56.60
2018-10-19T18:56:08.008Z,58.07
2018-10-19T18:58:39.449Z,58.87
2018-10-19T19:01:10.850Z,53.10
2018-10-19T19:03:42.252Z,50.07
2018-10-19T19:06:13.853Z,54.73
2018-10-19T19:08:45.129Z,49.97
2018-10-19T19:11:16.236Z,56.60
2018-10-19T19:13:48.673Z,49.20
2018-10-19T19:16:24.549Z,55.57
2018-10-19T19:18:55.882Z,48.97
2018-10-19T19:21:27.564Z,52.03
2018-10-19T19:24:03.592Z,51.37
2018-10-19T19:26:34.313Z,42.77
2018-10-19T19:29:05.914Z,47.27
2018-10-19T19:31:36.933Z,42.70
2018-10-19T19:34:14.060Z,44.03
2018-10-19T19:36:45.185Z,57.00
2018-10-19T19:39:16.032Z,41.30
2018-10-19T19:41:52.079Z,41.20
2018-10-19T19:44:22.747Z,35.67
2018-10-19T19:46:53.734Z,37.20
2018-10-19T19:49:29.952Z,36.77
2018-10-19T19:52:01.505Z,38.07
2018-10-19T19:54:31.932Z,36.30
2018-10-19T19:57:03.402Z,37.97
2018-10-19T19:59:35.112Z,37.07
2018-10-19T20:02:06.482Z,36.57
2018-10-19T20:04:37.829Z,36.60
2018-10-19T20:07:09.782Z,42.03
2018-10-19T20:09:40.200Z,57.73
2018-10-19T20:12:09.978Z,64.13
2018-10-19T20:14:40.485Z,50.40
2018-10-19T20:17:14.235Z,39.43
2018-10-19T20:19:45.060Z,42.97
2018-10-19T20:22:16.302Z,42.93
2018-10-19T20:24:47.737Z,35.40
2018-10-19T20:27:19.204Z,35.57
2018-10-19T20:29:50.802Z,36.60
2018-10-19T20:32:22.556Z,36.57
2018-10-19T20:34:54.291Z,34.60
2018-10-19T20:37:25.912Z,31.33
2018-10-19T20:39:57.727Z,25.67
2018-10-19T20:42:29.245Z,30.37
2018-10-19T20:45:00.665Z,27.23
2018-10-19T20:47:31.921Z,25.47
2018-10-19T20:50:03.202Z,26.77
2018-10-19T20:52:34.923Z,20.80
2018-10-19T20:55:06.890Z,22.77
2018-10-19T20:57:38.687Z,22.97
2018-10-19T21:00:10.662Z,20.83
2018-10-19T21:02:42.270Z,19.30
2018-10-19T21:05:13.959Z,19.83
2018-10-19T21:07:45.416Z,19.10
2018-10-19T21:10:17.049Z,19.97
2018-10-19T21:12:48.758Z,19.13
2018-10-19T21:15:20.642Z,19.03
2018-10-19T21:17:52.154Z,16.97
2018-10-19T21:20:23.759Z,18.07
2018-10-19T21:22:57.597Z,16.60
2018-10-19T21:25:30.967Z,15.17
2018-10-19T21:28:03.444Z,22.10
2018-10-19T21:30:36.482Z,19.80
2018-10-19T21:33:08.925Z,18.30
2018-10-19T21:35:41.382Z,18.80
2018-10-19T21:38:14.370Z,27.70
2018-10-19T21:40:45.158Z,28.47
2018-10-19T21:43:18.028Z,27.63
2018-10-19T21:45:49.439Z,28.57
2018-10-19T21:48:20.848Z,29.47
2018-10-19T21:50:52.319Z,32.07
2018-10-19T21:53:21.863Z,25.47
2018-10-19T21:55:51.851Z,26.50
2018-10-19T21:58:22.184Z,26.20
2018-10-19T22:00:52.010Z,31.43
2018-10-19T22:03:21.952Z,32.90
2018-10-19T22:05:52.035Z,28.03
2018-10-19T22:08:23.842Z,37.57
2018-10-19T22:10:54.983Z,33.07
2018-10-19T22:13:24.947Z,35.30
2018-10-19T22:15:54.529Z,36.00
2018-10-19T22:18:23.860Z,41.00
2018-10-19T22:20:55.633Z,36.70
2018-10-19T22:23:27.958Z,38.47
2018-10-19T22:25:59.239Z,44.47
2018-10-19T22:28:30.575Z,42.27
2018-10-19T22:31:02.244Z,40.30
2018-10-19T22:33:34.241Z,41.63
2018-10-19T22:36:05.775Z,36.10
2018-10-19T22:38:37.232Z,36.37
2018-10-19T22:41:08.741Z,36.80
2018-10-19T22:43:39.984Z,34.57
2018-10-19T22:46:11.595Z,33.27
2018-10-19T22:48:43.130Z,31.73
2018-10-19T22:51:14.495Z,32.93
2018-10-19T22:53:46.095Z,32.07
2018-10-19T22:56:17.609Z,29.33
2018-10-19T22:58:49.026Z,29.37
2018-10-19T23:01:20.420Z,32.57
2018-10-19T23:03:51.885Z,29.73
2018-10-19T23:06:23.301Z,28.07
2018-10-19T23:08:54.783Z,27.60
2018-10-19T23:11:26.170Z,28.30
2018-10-19T23:13:57.580Z,29.33
2018-10-19T23:16:29.154Z,29.23
2018-10-19T23:19:00.466Z,31.47
2018-10-19T23:21:31.747Z,33.63
2018-10-19T23:24:03.356Z,35.07
2018-10-19T23:26:34.394Z,33.83
2018-10-19T23:29:06.427Z,34.23
2018-10-19T23:31:37.990Z,37.90
2018-10-19T23:34:09.311Z,34.10
2018-10-19T23:36:40.734Z,33.10
2018-10-19T23:39:13.231Z,32.13
2018-10-19T23:41:44.712Z,34.50
2018-10-19T23:44:16.194Z,29.77
2018-10-19T23:46:47.524Z,27.87
2018-10-19T23:49:19.140Z,25.90
2018-10-19T23:51:50.403Z,25.57
2018-10-19T23:54:21.932Z,27.97
2018-10-19T23:56:53.496Z,26.87
2018-10-19T23:59:25.029Z,36.77
